Time;durP1;ratioP1;P1;durP2;ratioP2;P2;SDS_P1;SDS_P2;PMS_P1;PMS_P2;Temp;Humidity;BMP_temperature;BMP_pressure;BME280_temperature;BME280_humidity;BME280_pressure;Samples;Min_cycle;Max_cycle;Signal;HPM_P1;HPM_P2
2022/02/16 00:02:04;;;;;;;114.77;56.77;;;;;;;;;;5068552;28;20407;-76
2022/02/16 00:04:30;;;;;;;137.10;72.53;;;;;;;;;;5052247;28;20021;-77
2022/02/16 00:06:56;;;;;;;87.70;45.70;;;;;;;;;;5052915;28;20037;-71
2022/02/16 00:09:21;;;;;;;100.10;50.50;;;;;;;;;;5052254;28;20021;-70
2022/02/16 00:11:47;;;;;;;94.88;48.95;;;;;;;;;;5051977;28;20501;-70
2022/02/16 00:14:13;;;;;;;95.35;47.50;;;;;;;;;;5051803;28;20028;-70
2022/02/16 00:16:39;;;;;;;105.30;52.63;;;;;;;;;;5053089;28;20029;-72
2022/02/16 00:19:04;;;;;;;103.22;51.08;;;;;;;;;;5051943;28;20032;-70
2022/02/16 00:21:30;;;;;;;112.90;53.90;;;;;;;;;;5053358;28;20121;-71
2022/02/16 00:23:56;;;;;;;111.90;54.03;;;;;;;;;;5053011;28;20017;-77
2022/02/16 00:26:21;;;;;;;116.78;56.95;;;;;;;;;;5053189;28;20025;-77
2022/02/16 00:28:46;;;;;;;125.78;60.00;;;;;;;;;;5051222;28;20025;-77
2022/02/16 00:31:15;;;;;;;159.48;66.63;;;;;;;;;;5052930;28;20383;-77
2022/02/16 00:33:41;;;;;;;154.48;63.97;;;;;;;;;;5052150;28;20021;-77
2022/02/16 00:36:06;;;;;;;144.70;61.50;;;;;;;;;;5053145;28;20123;-70
2022/02/16 00:38:32;;;;;;;133.18;59.92;;;;;;;;;;5052350;28;20028;-72
2022/02/16 00:40:57;;;;;;;111.93;54.58;;;;;;;;;;5052770;28;20037;-73
2022/02/16 00:43:23;;;;;;;108.25;53.40;;;;;;;;;;5051787;28;20096;-72
2022/02/16 00:45:49;;;;;;;113.95;54.53;;;;;;;;;;5051818;28;20474;-73
2022/02/16 00:48:15;;;;;;;129.88;58.60;;;;;;;;;;5051012;28;20056;-72
2022/02/16 00:50:41;;;;;;;136.07;62.28;;;;;;;;;;5051381;28;20496;-72
2022/02/16 00:53:06;;;;;;;142.02;60.15;;;;;;;;;;5051747;28;20083;-72
2022/02/16 00:55:32;;;;;;;126.95;57.70;;;;;;;;;;5036979;28;20033;-72
2022/02/16 00:57:57;;;;;;;101.35;48.33;;;;;;;;;;5055386;28;20478;-72
2022/02/16 01:00:27;;;;;;;84.15;42.45;;;;;;;;;;5038799;28;20039;-71
2022/02/16 01:02:55;;;;;;;93.68;45.33;;;;;;;;;;5055180;28;20103;-70
2022/02/16 01:05:21;;;;;;;261.20;89.10;;;;;;;;;;5056454;28;20053;-72
2022/02/16 01:07:46;;;;;;;218.70;81.22;;;;;;;;;;5054792;28;20048;-73
2022/02/16 01:10:15;;;;;;;182.27;72.85;;;;;;;;;;5054689;28;20052;-74
2022/02/16 01:12:45;;;;;;;168.90;65.55;;;;;;;;;;5054707;28;20017;-71
2022/02/16 01:15:12;;;;;;;152.90;62.70;;;;;;;;;;5054923;28;20025;-71
2022/02/16 01:17:42;;;;;;;109.93;53.15;;;;;;;;;;5054700;28;20040;-71
2022/02/16 01:20:12;;;;;;;100.10;49.15;;;;;;;;;;5054603;28;20029;-71
2022/02/16 01:22:39;;;;;;;97.88;51.17;;;;;;;;;;5054608;28;20088;-71
2022/02/16 01:25:11;;;;;;;89.32;48.42;;;;;;;;;;5054802;28;20029;-71
2022/02/16 01:27:37;;;;;;;96.60;51.30;;;;;;;;;;5054640;28;20029;-71
2022/02/16 01:30:04;;;;;;;85.43;46.92;;;;;;;;;;5054189;28;20098;-71
2022/02/16 01:32:40;;;;;;;137.05;66.43;;;;;;;;;;5054117;28;20087;-71
2022/02/16 01:35:07;;;;;;;95.72;51.95;;;;;;;;;;5054335;28;20025;-71
2022/02/16 01:37:32;;;;;;;83.13;47.30;;;;;;;;;;5054433;28;20032;-71
2022/02/16 01:39:58;;;;;;;83.60;46.05;;;;;;;;;;5054511;28;20036;-70
2022/02/16 01:42:24;;;;;;;81.25;43.97;;;;;;;;;;5054117;28;20467;-70
2022/02/16 01:44:56;;;;;;;79.35;43.22;;;;;;;;;;5038423;28;20438;-70
2022/02/16 01:47:21;;;;;;;74.05;42.25;;;;;;;;;;5054843;28;20076;-71
2022/02/16 01:49:48;;;;;;;77.97;43.00;;;;;;;;;;5054699;28;20029;-71
2022/02/16 01:52:17;;;;;;;74.07;41.97;;;;;;;;;;5054440;28;20040;-71
2022/02/16 01:54:45;;;;;;;77.10;43.35;;;;;;;;;;5054166;28;20044;-76
2022/02/16 01:57:12;;;;;;;75.78;43.97;;;;;;;;;;5037675;28;20060;-76
2022/02/16 01:59:44;;;;;;;82.45;44.10;;;;;;;;;;5054224;28;20035;-77
2022/02/16 02:02:28;;;;;;;80.13;44.97;;;;;;;;;;5055931;28;20090;-76
2022/02/16 02:04:59;;;;;;;79.45;44.58;;;;;;;;;;5054084;28;20033;-76
2022/02/16 02:07:26;;;;;;;73.53;43.60;;;;;;;;;;5054000;28;20043;-76
2022/02/16 02:09:51;;;;;;;73.93;43.47;;;;;;;;;;5054076;28;20103;-78
2022/02/16 02:12:18;;;;;;;80.15;44.53;;;;;;;;;;5054188;28;20440;-76
2022/02/16 02:14:50;;;;;;;80.88;44.05;;;;;;;;;;5053505;28;20028;-77
2022/02/16 02:17:24;;;;;;;76.80;43.33;;;;;;;;;;5053801;28;20415;-76
2022/02/16 02:19:54;;;;;;;76.15;43.78;;;;;;;;;;5053624;28;20302;-77
2022/02/16 02:22:19;;;;;;;79.90;43.50;;;;;;;;;;5054857;28;20025;-76
2022/02/16 02:24:45;;;;;;;77.93;43.15;;;;;;;;;;5053748;28;20029;-71
2022/02/16 02:27:11;;;;;;;76.90;44.13;;;;;;;;;;5053410;28;20501;-71
2022/02/16 02:29:39;;;;;;;76.28;42.05;;;;;;;;;;5053267;28;20033;-72
2022/02/16 02:32:05;;;;;;;72.53;42.78;;;;;;;;;;5053353;28;20340;-72
2022/02/16 02:34:31;;;;;;;76.32;42.42;;;;;;;;;;5053481;28;20023;-71
2022/02/16 02:36:56;;;;;;;73.15;41.08;;;;;;;;;;5054471;28;20059;-71
2022/02/16 02:39:22;;;;;;;72.03;40.63;;;;;;;;;;5054503;28;20077;-71
2022/02/16 02:41:48;;;;;;;73.60;40.95;;;;;;;;;;5053134;28;20017;-71
2022/02/16 02:44:13;;;;;;;74.82;42.75;;;;;;;;;;5052989;28;20486;-71
2022/02/16 02:46:42;;;;;;;66.38;39.67;;;;;;;;;;5053043;28;20399;-71
2022/02/16 02:49:09;;;;;;;76.60;41.33;;;;;;;;;;5035981;28;20079;-72
2022/02/16 02:51:35;;;;;;;64.25;39.90;;;;;;;;;;5053096;28;20033;-72
2022/02/16 02:54:01;;;;;;;69.30;40.22;;;;;;;;;;5036376;28;20025;-71
2022/02/16 02:56:35;;;;;;;70.60;40.30;;;;;;;;;;5037302;28;20442;-71
2022/02/16 02:59:01;;;;;;;73.57;42.83;;;;;;;;;;5052666;28;20106;-72
2022/02/16 03:01:27;;;;;;;82.93;44.42;;;;;;;;;;5036570;28;20015;-72
2022/02/16 03:03:53;;;;;;;74.88;43.10;;;;;;;;;;5052798;28;20379;-72
2022/02/16 03:06:20;;;;;;;73.55;41.72;;;;;;;;;;5053197;28;20406;-73
2022/02/16 03:08:46;;;;;;;74.43;40.92;;;;;;;;;;5052785;28;20029;-73
2022/02/16 03:11:16;;;;;;;76.97;41.55;;;;;;;;;;5036034;28;20071;-73
2022/02/16 03:13:43;;;;;;;76.68;42.17;;;;;;;;;;5052573;28;20051;-73
2022/02/16 03:16:19;;;;;;;87.05;45.80;;;;;;;;;;5052594;28;20016;-73
2022/02/16 03:18:45;;;;;;;78.78;42.72;;;;;;;;;;5052324;28;20070;-72
2022/02/16 03:21:11;;;;;;;65.40;38.72;;;;;;;;;;5036067;28;20059;-72
2022/02/16 03:23:37;;;;;;;69.05;40.25;;;;;;;;;;5035976;28;20033;-72
2022/02/16 03:26:03;;;;;;;68.47;39.67;;;;;;;;;;5052755;28;20474;-71
2022/02/16 03:28:31;;;;;;;70.47;39.90;;;;;;;;;;5052074;28;20037;-72
2022/02/16 03:31:20;;;;;;;77.88;45.05;;;;;;;;;;5052286;28;20345;-72
2022/02/16 03:33:49;;;;;;;81.25;44.97;;;;;;;;;;5052210;28;20021;-72
2022/02/16 03:36:14;;;;;;;87.47;47.42;;;;;;;;;;5052327;28;20467;-72
2022/02/16 03:38:41;;;;;;;78.55;43.25;;;;;;;;;;5052506;28;20040;-73
2022/02/16 03:41:10;;;;;;;78.90;44.60;;;;;;;;;;5052251;28;20021;-78
2022/02/16 03:43:36;;;;;;;75.93;43.88;;;;;;;;;;5035943;28;20059;-77
2022/02/16 03:46:01;;;;;;;74.30;43.15;;;;;;;;;;5052290;28;20032;-77
2022/02/16 03:48:30;;;;;;;74.72;43.30;;;;;;;;;;5051749;28;20128;-76
2022/02/16 03:50:58;;;;;;;86.32;44.60;;;;;;;;;;5052304;28;20064;-77
2022/02/16 03:53:25;;;;;;;83.57;43.92;;;;;;;;;;5052166;28;20025;-72
2022/02/16 03:55:51;;;;;;;74.28;42.25;;;;;;;;;;5035341;28;20040;-71
2022/02/16 03:58:17;;;;;;;67.40;40.63;;;;;;;;;;5052043;28;20029;-69
2022/02/16 04:00:42;;;;;;;69.70;40.10;;;;;;;;;;5035399;28;20032;-71
2022/02/16 04:03:08;;;;;;;67.53;39.95;;;;;;;;;;5052021;28;20467;-70
2022/02/16 04:05:35;;;;;;;65.40;38.60;;;;;;;;;;5051921;28;20025;-76
2022/02/16 04:08:00;;;;;;;71.07;40.83;;;;;;;;;;5052075;28;20569;-76
2022/02/16 04:10:26;;;;;;;68.70;40.40;;;;;;;;;;5052224;28;20024;-77
2022/02/16 04:12:52;;;;;;;67.78;39.72;;;;;;;;;;5052295;28;20021;-76
2022/02/16 04:15:17;;;;;;;70.47;39.72;;;;;;;;;;5051749;28;20397;-76
2022/02/16 04:17:47;;;;;;;74.95;40.55;;;;;;;;;;5051935;28;20455;-76
2022/02/16 04:20:14;;;;;;;70.63;41.45;;;;;;;;;;5051724;28;20063;-71
2022/02/16 04:22:44;;;;;;;68.18;39.17;;;;;;;;;;5051770;28;20361;-71
2022/02/16 04:25:12;;;;;;;68.38;39.15;;;;;;;;;;5051487;28;20039;-71
2022/02/16 04:27:39;;;;;;;67.32;41.33;;;;;;;;;;5051517;28;20056;-71
2022/02/16 04:30:05;;;;;;;67.43;42.58;;;;;;;;;;5054802;28;20052;-71
2022/02/16 04:32:31;;;;;;;68.03;41.85;;;;;;;;;;5055406;28;20032;-71
2022/02/16 04:34:56;;;;;;;67.05;39.85;;;;;;;;;;5056856;28;20013;-71
2022/02/16 04:37:22;;;;;;;74.70;43.78;;;;;;;;;;5038839;28;20399;-71
2022/02/16 04:39:48;;;;;;;70.70;42.65;;;;;;;;;;5055345;28;20384;-71
2022/02/16 04:42:13;;;;;;;62.42;38.67;;;;;;;;;;5055429;28;20041;-76
2022/02/16 04:44:39;;;;;;;62.55;37.90;;;;;;;;;;5038957;28;20020;-76
2022/02/16 04:47:08;;;;;;;64.80;38.97;;;;;;;;;;5054568;28;20462;-72
2022/02/16 04:49:34;;;;;;;63.33;38.22;;;;;;;;;;5055470;28;20075;-72
2022/02/16 04:52:00;;;;;;;67.65;39.78;;;;;;;;;;5055213;28;20036;-71
2022/02/16 04:54:27;;;;;;;70.63;43.25;;;;;;;;;;5055358;28;20471;-72
2022/02/16 04:56:52;;;;;;;68.38;41.35;;;;;;;;;;5055339;28;20033;-71
2022/02/16 04:59:20;;;;;;;65.05;39.13;;;;;;;;;;5038721;28;20016;-71
2022/02/16 05:01:46;;;;;;;63.42;37.80;;;;;;;;;;5038478;28;20029;-77
2022/02/16 05:04:12;;;;;;;70.00;40.05;;;;;;;;;;5049413;28;20530;-77
2022/02/16 05:06:41;;;;;;;63.35;38.55;;;;;;;;;;5053330;28;20070;-76
2022/02/16 05:09:10;;;;;;;53.58;35.15;;;;;;;;;;5052533;28;20112;-76
2022/02/16 05:11:36;;;;;;;63.63;36.28;;;;;;;;;;5036036;28;20033;-77
2022/02/16 05:14:04;;;;;;;60.45;35.83;;;;;;;;;;5051986;28;20017;-76
2022/02/16 05:16:37;;;;;;;62.35;36.28;;;;;;;;;;5052365;28;20085;-76
2022/02/16 05:19:03;;;;;;;56.60;36.30;;;;;;;;;;5052209;28;20072;-77
2022/02/16 05:21:35;;;;;;;63.83;36.22;;;;;;;;;;5036651;28;20029;-77
2022/02/16 05:24:03;;;;;;;69.50;38.38;;;;;;;;;;5051798;28;20041;-77
2022/02/16 05:26:29;;;;;;;66.80;37.40;;;;;;;;;;5051926;28;20094;-71
2022/02/16 05:28:55;;;;;;;59.20;34.33;;;;;;;;;;5050593;28;20051;-70
2022/02/16 05:31:20;;;;;;;57.28;34.80;;;;;;;;;;5050685;28;20375;-71
2022/02/16 05:33:46;;;;;;;56.38;33.25;;;;;;;;;;5050818;28;20455;-71
2022/02/16 05:36:16;;;;;;;56.60;34.33;;;;;;;;;;5051030;28;20102;-71
2022/02/16 05:38:43;;;;;;;60.45;33.13;;;;;;;;;;5034264;28;20040;-71
2022/02/16 05:41:08;;;;;;;57.85;34.58;;;;;;;;;;5050164;28;20025;-71
2022/02/16 05:43:35;;;;;;;54.28;33.78;;;;;;;;;;5050703;28;20040;-71
2022/02/16 05:46:03;;;;;;;58.03;35.20;;;;;;;;;;5050495;28;20171;-70
2022/02/16 05:48:29;;;;;;;54.25;34.20;;;;;;;;;;5050508;28;20513;-72
2022/02/16 05:50:56;;;;;;;50.13;32.15;;;;;;;;;;5050421;28;20021;-71
2022/02/16 05:53:22;;;;;;;51.50;31.83;;;;;;;;;;5050380;28;20036;-71
2022/02/16 05:55:47;;;;;;;53.08;31.85;;;;;;;;;;5050510;28;20059;-71
2022/02/16 05:58:13;;;;;;;58.05;34.70;;;;;;;;;;5050451;28;20475;-71
2022/02/16 06:00:38;;;;;;;59.63;33.00;;;;;;;;;;5050589;28;20033;-70
2022/02/16 06:03:06;;;;;;;54.38;32.65;;;;;;;;;;5050834;28;20382;-71
2022/02/16 06:05:32;;;;;;;51.10;30.33;;;;;;;;;;5050408;28;20021;-73
2022/02/16 06:07:58;;;;;;;60.80;36.00;;;;;;;;;;5051709;28;20028;-73
2022/02/16 06:10:27;;;;;;;54.88;32.17;;;;;;;;;;5050088;28;20666;-73
2022/02/16 06:12:52;;;;;;;71.82;42.70;;;;;;;;;;5050442;28;20021;-72
2022/02/16 06:15:19;;;;;;;69.20;42.40;;;;;;;;;;5033395;28;20021;-72
2022/02/16 06:17:44;;;;;;;69.60;43.58;;;;;;;;;;5033653;28;20399;-72
2022/02/16 06:20:11;;;;;;;84.15;49.53;;;;;;;;;;5033728;28;20029;-73
2022/02/16 06:22:38;;;;;;;83.20;46.22;;;;;;;;;;5050301;28;20120;-72
2022/02/16 06:25:06;;;;;;;83.47;49.33;;;;;;;;;;5049806;28;20024;-72
2022/02/16 06:27:34;;;;;;;93.50;55.05;;;;;;;;;;5049369;28;20048;-72
2022/02/16 06:30:02;;;;;;;71.60;41.65;;;;;;;;;;5033923;28;20017;-72
2022/02/16 06:32:49;;;;;;;75.53;45.67;;;;;;;;;;5049686;28;20116;-72
2022/02/16 06:35:14;;;;;;;91.85;55.50;;;;;;;;;;5049595;28;20119;-72
2022/02/16 06:37:40;;;;;;;86.95;51.60;;;;;;;;;;5050246;28;20182;-72
2022/02/16 06:40:09;;;;;;;73.70;43.97;;;;;;;;;;5049808;28;20033;-71
2022/02/16 06:42:37;;;;;;;74.75;43.03;;;;;;;;;;5049744;28;20714;-72
2022/02/16 06:45:03;;;;;;;84.78;49.33;;;;;;;;;;5033077;28;20033;-72
2022/02/16 06:47:38;;;;;;;78.70;45.03;;;;;;;;;;5049029;28;20090;-72
2022/02/16 06:50:04;;;;;;;81.22;45.58;;;;;;;;;;5049674;28;20044;-72
2022/02/16 06:52:30;;;;;;;78.05;44.95;;;;;;;;;;5048959;28;20029;-73
2022/02/16 06:54:56;;;;;;;76.88;44.33;;;;;;;;;;5032844;28;20664;-72
2022/02/16 06:57:21;;;;;;;88.60;52.40;;;;;;;;;;5050609;28;20498;-72
2022/02/16 06:59:55;;;;;;;85.35;50.35;;;;;;;;;;5034325;28;20454;-72
2022/02/16 07:02:21;;;;;;;75.40;46.33;;;;;;;;;;5048882;28;20132;-72
2022/02/16 07:04:48;;;;;;;73.38;43.17;;;;;;;;;;5048247;28;20028;-72
2022/02/16 07:07:14;;;;;;;67.07;41.00;;;;;;;;;;5049240;28;20367;-72
2022/02/16 07:09:39;;;;;;;58.35;34.90;;;;;;;;;;5049005;28;20031;-72
2022/02/16 07:12:05;;;;;;;50.15;31.48;;;;;;;;;;5049228;28;20033;-72
2022/02/16 07:14:31;;;;;;;47.97;28.55;;;;;;;;;;5048827;28;20740;-72
2022/02/16 07:16:58;;;;;;;46.03;27.48;;;;;;;;;;5032353;28;20470;-72
2022/02/16 07:19:26;;;;;;;41.50;26.23;;;;;;;;;;5049386;28;20031;-72
2022/02/16 07:22:18;;;;;;;;;;;;;;;;;;5049412;28;20041;-72
2022/02/16 07:24:44;;;;;;;35.08;22.95;;;;;;;;;;5049032;28;19909;-72
2022/02/16 07:27:10;;;;;;;47.88;25.75;;;;;;;;;;5049042;28;20347;-72
2022/02/16 07:29:35;;;;;;;44.00;25.08;;;;;;;;;;5049285;28;20127;-72
2022/02/16 07:32:01;;;;;;;44.05;22.92;;;;;;;;;;5048985;28;20414;-72
2022/02/16 07:34:30;;;;;;;35.63;19.90;;;;;;;;;;5048822;28;20069;-72
2022/02/16 07:36:56;;;;;;;37.28;21.90;;;;;;;;;;5048478;28;20015;-72
2022/02/16 07:39:27;;;;;;;36.05;20.42;;;;;;;;;;5049130;28;20055;-72
2022/02/16 07:42:06;;;;;;;;;;;;;;;;;;;;;
2022/02/16 07:44:54;;;;;;;35.67;20.98;;;;;;;;;;5047700;28;20111;-72
2022/02/16 07:47:23;;;;;;;34.22;20.05;;;;;;;;;;5047360;28;20511;-72
2022/02/16 07:49:51;;;;;;;32.40;18.48;;;;;;;;;;5048255;28;20033;-72
2022/02/16 07:52:19;;;;;;;29.55;17.08;;;;;;;;;;5049631;28;20036;-73
2022/02/16 07:54:55;;;;;;;37.78;21.02;;;;;;;;;;5048848;28;20021;-77
2022/02/16 07:57:37;;;;;;;27.45;16.65;;;;;;;;;;5049564;28;20459;-77
2022/02/16 08:00:05;;;;;;;24.70;15.43;;;;;;;;;;5049452;28;20402;-77
2022/02/16 08:02:40;;;;;;;21.25;12.55;;;;;;;;;;5051735;28;20043;-77
2022/02/16 08:05:09;;;;;;;18.60;12.60;;;;;;;;;;5053437;28;20029;-77
2022/02/16 08:07:37;;;;;;;16.10;9.90;;;;;;;;;;5055788;28;20360;-77
2022/02/16 08:10:04;;;;;;;16.88;9.75;;;;;;;;;;5054700;28;20032;-78
2022/02/16 08:12:31;;;;;;;13.55;10.20;;;;;;;;;;5054474;28;20111;-77
2022/02/16 08:14:56;;;;;;;16.52;10.13;;;;;;;;;;5054168;28;20029;-77
2022/02/16 08:17:25;;;;;;;15.32;10.05;;;;;;;;;;5037652;28;20048;-77
2022/02/16 08:19:52;;;;;;;12.15;7.78;;;;;;;;;;5054099;28;20037;-77
2022/02/16 08:22:17;;;;;;;10.52;7.65;;;;;;;;;;5037411;28;20078;-77
2022/02/16 08:24:43;;;;;;;10.98;6.50;;;;;;;;;;5053901;28;20025;-77
2022/02/16 08:27:18;;;;;;;12.38;7.07;;;;;;;;;;5053832;28;20029;-77
2022/02/16 08:29:46;;;;;;;11.30;8.02;;;;;;;;;;5053896;28;20112;-77
2022/02/16 08:32:26;;;;;;;12.55;7.68;;;;;;;;;;5053907;28;20028;-78
2022/02/16 08:35:15;;;;;;;9.85;6.57;;;;;;;;;;5054508;28;20041;-73
2022/02/16 08:37:41;;;;;;;11.20;7.45;;;;;;;;;;5052156;28;20025;-72
2022/02/16 08:40:07;;;;;;;9.45;6.97;;;;;;;;;;5051858;28;20032;-73
2022/02/16 08:42:32;;;;;;;8.00;5.85;;;;;;;;;;5052337;28;20807;-73
2022/02/16 08:44:58;;;;;;;10.00;7.10;;;;;;;;;;5052607;28;20032;-73
2022/02/16 08:47:24;;;;;;;8.57;6.07;;;;;;;;;;5051999;28;20064;-72
2022/02/16 08:49:50;;;;;;;8.75;5.45;;;;;;;;;;5051980;28;20475;-71
2022/02/16 08:52:15;;;;;;;8.15;6.43;;;;;;;;;;5052957;28;20036;-72
2022/02/16 08:54:41;;;;;;;9.63;5.82;;;;;;;;;;5052885;28;20075;-72
2022/02/16 08:57:12;;;;;;;8.82;5.95;;;;;;;;;;5052914;28;20067;-72
2022/02/16 08:59:38;;;;;;;6.55;5.07;;;;;;;;;;5052914;28;20072;-71
2022/02/16 09:02:04;;;;;;;9.50;5.93;;;;;;;;;;5051589;28;20052;-72
2022/02/16 09:04:29;;;;;;;8.38;5.25;;;;;;;;;;5051407;28;20105;-71
2022/02/16 09:07:37;;;;;;;7.40;5.70;;;;;;;;;;5051380;28;20575;-72
2022/02/16 09:09:44;;;;;;;8.90;5.22;;;;;;;;;;5046069;28;20499;-72
2022/02/16 09:12:10;;;;;;;8.50;6.00;;;;;;;;;;5051368;28;20036;-72
2022/02/16 09:14:36;;;;;;;6.65;5.53;;;;;;;;;;5052722;28;20033;-72
2022/02/16 09:17:02;;;;;;;9.88;6.20;;;;;;;;;;5051636;28;20032;-72
2022/02/16 09:19:27;;;;;;;8.30;6.47;;;;;;;;;;5050598;28;20033;-72
2022/02/16 09:21:53;;;;;;;9.20;5.72;;;;;;;;;;5050512;28;20459;-72
2022/02/16 09:24:19;;;;;;;6.65;5.75;;;;;;;;;;5052114;28;20621;-72
2022/02/16 09:26:49;;;;;;;7.50;5.40;;;;;;;;;;5052440;28;20028;-72
2022/02/16 09:29:17;;;;;;;9.27;6.50;;;;;;;;;;5050954;28;20040;-72
2022/02/16 09:31:42;;;;;;;10.65;7.15;;;;;;;;;;5051892;28;20032;-72
2022/02/16 09:34:07;;;;;;;4.97;3.92;;;;;;;;;;5052161;28;20090;-72
2022/02/16 09:36:33;;;;;;;8.65;4.68;;;;;;;;;;5051893;28;20025;-72
2022/02/16 09:38:59;;;;;;;7.28;5.60;;;;;;;;;;5049873;28;20024;-72
2022/02/16 09:41:24;;;;;;;6.40;5.38;;;;;;;;;;5051869;28;20850;-72
2022/02/16 09:43:50;;;;;;;6.63;5.47;;;;;;;;;;5050494;28;20029;-72
2022/02/16 09:46:16;;;;;;;5.00;3.75;;;;;;;;;;5051962;28;20021;-72
2022/02/16 09:48:42;;;;;;;3.35;2.85;;;;;;;;;;5050507;28;20474;-72
2022/02/16 09:51:10;;;;;;;6.13;3.80;;;;;;;;;;5050361;28;20024;-72
2022/02/16 09:53:36;;;;;;;6.05;4.40;;;;;;;;;;5050405;28;20064;-72
2022/02/16 09:56:02;;;;;;;2.83;2.28;;;;;;;;;;5051719;28;20428;-71
2022/02/16 09:58:30;;;;;;;5.60;3.95;;;;;;;;;;5050899;28;20025;-71
2022/02/16 10:01:12;;;;;;;4.43;3.42;;;;;;;;;;5033226;28;20017;-71
2022/02/16 10:03:40;;;;;;;3.13;2.45;;;;;;;;;;5050365;28;20043;-71
2022/02/16 10:06:31;;;;;;;3.30;3.00;;;;;;;;;;5033448;28;20075;-71
2022/02/16 10:08:57;;;;;;;3.95;3.05;;;;;;;;;;5050649;28;20387;-70
2022/02/16 10:11:22;;;;;;;2.20;1.17;;;;;;;;;;5051548;28;20047;-71
2022/02/16 10:13:48;;;;;;;3.17;2.35;;;;;;;;;;5049955;28;20037;-71
2022/02/16 10:16:29;;;;;;;2.75;2.15;;;;;;;;;;5051660;28;20051;-71
2022/02/16 10:19:02;;;;;;;2.80;1.85;;;;;;;;;;5049390;28;20037;-71
2022/02/16 10:21:27;;;;;;;1.42;1.33;;;;;;;;;;5030072;28;20037;-71
2022/02/16 10:23:53;;;;;;;4.18;3.17;;;;;;;;;;5031594;28;20129;-72
2022/02/16 10:26:19;;;;;;;3.20;2.60;;;;;;;;;;5046691;28;20052;-71
2022/02/16 10:28:46;;;;;;;2.45;2.22;;;;;;;;;;5030191;28;20041;-71
2022/02/16 10:31:11;;;;;;;4.20;3.42;;;;;;;;;;5046797;28;20030;-71
2022/02/16 10:33:42;;;;;;;1.95;1.65;;;;;;;;;;5031295;28;20009;-71
2022/02/16 10:36:20;;;;;;;2.78;1.52;;;;;;;;;;5031604;28;20124;-71
2022/02/16 10:38:52;;;;;;;3.85;2.45;;;;;;;;;;5031405;28;20036;-71
2022/02/16 10:41:18;;;;;;;2.95;2.40;;;;;;;;;;5048110;28;20120;-71
2022/02/16 10:43:45;;;;;;;1.45;1.35;;;;;;;;;;5048560;28;20112;-71
2022/02/16 10:46:16;;;;;;;2.17;1.67;;;;;;;;;;5050048;28;20056;-72
2022/02/16 10:48:42;;;;;;;1.10;0.95;;;;;;;;;;5029671;28;20041;-72
2022/02/16 10:51:14;;;;;;;1.55;1.45;;;;;;;;;;5032044;28;20021;-72
2022/02/16 10:53:39;;;;;;;1.10;0.85;;;;;;;;;;5049729;28;20447;-72
2022/02/16 10:56:07;;;;;;;4.22;2.70;;;;;;;;;;5049118;28;20049;-72
2022/02/16 10:58:33;;;;;;;3.38;2.50;;;;;;;;;;5050187;28;20075;-72
2022/02/16 11:00:59;;;;;;;3.30;2.70;;;;;;;;;;5049515;28;20416;-71
2022/02/16 11:03:40;;;;;;;3.00;2.35;;;;;;;;;;5050578;28;20144;-72
2022/02/16 11:06:07;;;;;;;3.47;2.92;;;;;;;;;;5049192;28;20116;-72
2022/02/16 11:08:33;;;;;;;0.52;0.52;;;;;;;;;;5050491;28;20021;-72
2022/02/16 11:11:03;;;;;;;1.77;1.67;;;;;;;;;;5049131;28;20025;-72
2022/02/16 11:13:30;;;;;;;4.22;3.40;;;;;;;;;;5050664;28;20037;-72
2022/02/16 11:15:55;;;;;;;1.63;1.33;;;;;;;;;;5050366;28;20649;-72
2022/02/16 11:18:24;;;;;;;1.70;1.50;;;;;;;;;;5048027;28;20127;-72
2022/02/16 11:21:06;;;;;;;3.17;2.30;;;;;;;;;;5048781;28;20074;-72
2022/02/16 11:23:37;;;;;;;7.50;4.03;;;;;;;;;;5048792;28;20154;-72
2022/02/16 11:26:23;;;;;;;6.13;3.95;;;;;;;;;;5044449;28;20029;-72
2022/02/16 11:28:48;;;;;;;4.88;3.58;;;;;;;;;;5045616;28;20179;-72
2022/02/16 11:31:33;;;;;;;3.83;3.05;;;;;;;;;;5046949;28;20108;-72
2022/02/16 11:34:11;;;;;;;4.10;3.22;;;;;;;;;;5047421;28;20089;-72
2022/02/16 11:36:46;;;;;;;4.28;3.20;;;;;;;;;;5048527;28;20028;-72
2022/02/16 11:39:33;;;;;;;5.32;2.63;;;;;;;;;;5048599;28;20032;-71
2022/02/16 11:42:00;;;;;;;3.72;2.72;;;;;;;;;;5046244;28;20024;-71
2022/02/16 11:44:45;;;;;;;5.90;3.35;;;;;;;;;;5049561;28;20115;-71
2022/02/16 11:47:31;;;;;;;5.15;2.33;;;;;;;;;;5047909;28;20048;-72
2022/02/16 11:49:58;;;;;;;6.35;2.83;;;;;;;;;;5048509;28;20045;-72
2022/02/16 11:52:30;;;;;;;5.10;3.10;;;;;;;;;;5047072;28;20021;-72
2022/02/16 11:54:57;;;;;;;5.18;3.38;;;;;;;;;;5047248;28;20025;-72
2022/02/16 11:57:42;;;;;;;1.70;1.60;;;;;;;;;;5049136;28;20024;-72
2022/02/16 12:00:18;;;;;;;3.85;3.00;;;;;;;;;;5049808;28;20028;-73
2022/02/16 12:03:05;;;;;;;3.08;1.50;;;;;;;;;;5050326;28;20410;-73
2022/02/16 12:05:55;;;;;;;4.65;3.58;;;;;;;;;;5048645;28;20029;-73
2022/02/16 12:08:24;;;;;;;2.08;1.75;;;;;;;;;;5048977;28;20040;-73
2022/02/16 12:10:52;;;;;;;4.07;3.35;;;;;;;;;;5032325;28;20064;-74
2022/02/16 12:13:33;;;;;;;2.08;1.05;;;;;;;;;;5048829;28;20029;-73
2022/02/16 12:16:04;;;;;;;1.40;1.30;;;;;;;;;;5047841;28;20481;-73
2022/02/16 12:18:30;;;;;;;3.85;3.03;;;;;;;;;;5049206;28;20116;-74
2022/02/16 12:20:56;;;;;;;3.25;2.95;;;;;;;;;;5048506;28;20140;-74
2022/02/16 12:23:22;;;;;;;5.07;2.67;;;;;;;;;;5049137;28;20451;-74
2022/02/16 12:26:10;;;;;;;1.90;1.77;;;;;;;;;;5049093;28;20099;-74
2022/02/16 12:29:08;;;;;;;5.63;2.83;;;;;;;;;;5049372;28;20152;-72
2022/02/16 12:31:36;;;;;;;5.10;2.78;;;;;;;;;;5009343;28;20040;-72
2022/02/16 12:34:06;;;;;;;7.78;2.83;;;;;;;;;;5049373;28;20795;-72
2022/02/16 12:36:33;;;;;;;2.08;1.83;;;;;;;;;;5048950;28;20041;-72
2022/02/16 12:39:00;;;;;;;3.10;2.35;;;;;;;;;;5048252;28;20048;-72
2022/02/16 12:41:26;;;;;;;2.53;2.25;;;;;;;;;;5049565;28;20114;-72
2022/02/16 12:43:54;;;;;;;3.45;2.78;;;;;;;;;;5048223;28;20032;-72
2022/02/16 12:46:22;;;;;;;5.57;2.75;;;;;;;;;;5048207;28;20062;-72
2022/02/16 12:48:47;;;;;;;4.15;1.95;;;;;;;;;;5047864;28;20091;-72
2022/02/16 12:51:35;;;;;;;5.70;3.45;;;;;;;;;;5049561;28;20128;-72
2022/02/16 12:54:05;;;;;;;6.57;2.78;;;;;;;;;;5049514;28;20496;-72
2022/02/16 12:56:35;;;;;;;0.80;0.80;;;;;;;;;;5051651;28;20086;-72
2022/02/16 12:59:11;;;;;;;4.22;2.10;;;;;;;;;;5051464;28;20028;-72
2022/02/16 13:01:41;;;;;;;6.38;3.15;;;;;;;;;;5051707;28;20098;-73
2022/02/16 13:04:07;;;;;;;5.05;2.40;;;;;;;;;;5051357;28;20033;-72
2022/02/16 13:06:40;;;;;;;1.50;1.40;;;;;;;;;;5051327;28;20568;-72
2022/02/16 13:09:06;;;;;;;5.13;2.85;;;;;;;;;;5051263;28;20110;-72
2022/02/16 13:11:47;;;;;;;3.92;1.98;;;;;;;;;;5050958;28;20017;-72
2022/02/16 13:14:12;;;;;;;1.33;1.23;;;;;;;;;;5051028;28;20400;-72
2022/02/16 13:16:38;;;;;;;3.40;2.08;;;;;;;;;;5051243;28;20032;-72
2022/02/16 13:19:04;;;;;;;4.05;2.42;;;;;;;;;;5049587;28;20044;-72
2022/02/16 13:21:29;;;;;;;3.85;2.15;;;;;;;;;;5053825;28;20172;-72
2022/02/16 13:24:02;;;;;;;2.50;2.00;;;;;;;;;;5046717;28;20488;-73
2022/02/16 13:26:35;;;;;;;3.55;2.80;;;;;;;;;;5045925;28;20040;-72
2022/02/16 13:29:02;;;;;;;2.55;2.00;;;;;;;;;;5045802;28;20037;-73
2022/02/16 13:31:33;;;;;;;3.10;1.40;;;;;;;;;;5046618;28;20016;-73
2022/02/16 13:33:58;;;;;;;;;;;;;;;;;;5047399;28;20074;-73
2022/02/16 13:36:32;;;;;;;2.45;2.25;;;;;;;;;;5047191;28;19908;-73
2022/02/16 13:39:08;;;;;;;4.53;3.10;;;;;;;;;;5045211;28;20036;-73
2022/02/16 13:41:36;;;;;;;3.80;2.88;;;;;;;;;;5045363;28;20033;-73
2022/02/16 13:44:02;;;;;;;2.35;1.85;;;;;;;;;;5046956;28;20483;-73
2022/02/16 13:46:46;;;;;;;5.25;3.25;;;;;;;;;;5044685;28;20036;-73
2022/02/16 13:49:13;;;;;;;3.25;2.63;;;;;;;;;;5045124;28;20493;-73
2022/02/16 13:51:51;;;;;;;5.13;4.18;;;;;;;;;;5049104;28;20574;-73
2022/02/16 13:54:18;;;;;;;6.82;4.40;;;;;;;;;;5046448;28;20029;-73
2022/02/16 13:56:47;;;;;;;6.07;4.22;;;;;;;;;;5046641;28;20509;-73
2022/02/16 13:59:13;;;;;;;5.88;5.00;;;;;;;;;;5048490;28;20483;-74
2022/02/16 14:01:40;;;;;;;7.53;3.42;;;;;;;;;;5047421;28;20024;-74
2022/02/16 14:04:06;;;;;;;8.60;4.45;;;;;;;;;;5046278;28;20036;-74
2022/02/16 14:06:32;;;;;;;6.13;3.17;;;;;;;;;;5030012;28;20028;-74
2022/02/16 14:08:58;;;;;;;7.50;4.60;;;;;;;;;;5046813;28;20573;-74
2022/02/16 14:11:24;;;;;;;7.85;5.22;;;;;;;;;;5048760;28;20108;-74
2022/02/16 14:13:50;;;;;;;6.28;4.78;;;;;;;;;;5048275;28;20032;-74
2022/02/16 14:16:16;;;;;;;4.60;2.97;;;;;;;;;;5030343;28;20471;-74
2022/02/16 14:18:42;;;;;;;7.85;5.28;;;;;;;;;;5047571;28;20039;-74
2022/02/16 14:21:08;;;;;;;7.97;5.55;;;;;;;;;;5048043;28;20025;-74
2022/02/16 14:23:35;;;;;;;7.60;5.40;;;;;;;;;;5046029;28;20037;-73
2022/02/16 14:26:00;;;;;;;8.30;4.80;;;;;;;;;;5029944;28;20021;-74
2022/02/16 14:28:28;;;;;;;13.27;8.90;;;;;;;;;;5047871;28;20076;-74
2022/02/16 14:30:54;;;;;;;9.52;5.15;;;;;;;;;;5046412;28;20718;-74
2022/02/16 14:33:20;;;;;;;6.65;4.80;;;;;;;;;;5047991;28;20029;-74
2022/02/16 14:35:45;;;;;;;11.73;6.78;;;;;;;;;;5046231;28;20048;-74
2022/02/16 14:38:11;;;;;;;7.03;3.95;;;;;;;;;;5047639;28;20033;-74